createdAt,value
2018-05-27T00:04:26.017Z,8.34
2018-05-27T00:10:21.070Z,7.97
2018-05-27T00:16:16.039Z,7.41
2018-05-27T00:22:11.037Z,7.11
2018-05-27T00:28:06.064Z,7.94
2018-05-27T00:34:01.089Z,7.58
2018-05-27T00:39:56.051Z,7.65
2018-05-27T00:45:51.055Z,7.68
2018-05-27T00:51:46.118Z,7.55
2018-05-27T00:57:41.080Z,8
2018-05-27T01:03:36.058Z,7.51
2018-05-27T01:09:31.076Z,7.48
2018-05-27T01:15:26.083Z,6.98
2018-05-27T01:21:21.048Z,7.02
2018-05-27T01:27:16.043Z,7
2018-05-27T01:33:11.073Z,7.14
2018-05-27T01:39:06.298Z,7.43
2018-05-27T01:45:01.250Z,7.67
2018-05-27T01:50:56.090Z,7.17
2018-05-27T01:56:51.059Z,7.14
2018-05-27T02:02:46.098Z,7.42
2018-05-27T02:08:41.069Z,7.33
2018-05-27T02:14:36.067Z,7.51
2018-05-27T02:20:31.091Z,7.3
2018-05-27T02:26:26.112Z,6.82
2018-05-27T02:32:21.145Z,7.15
2018-05-27T02:38:16.175Z,7.09
2018-05-27T02:44:11.150Z,6.55
2018-05-27T02:50:06.102Z,6.65
2018-05-27T02:56:01.132Z,6.65
2018-05-27T03:01:56.122Z,6.62
2018-05-27T03:07:51.105Z,6.16
2018-05-27T03:13:46.160Z,6.11
2018-05-27T03:19:41.106Z,6.19
2018-05-27T03:25:36.142Z,6.31
2018-05-27T03:31:31.096Z,5.81
2018-05-27T03:37:26.107Z,5.39
2018-05-27T03:43:21.127Z,5.84
2018-05-27T03:49:16.143Z,5.92
2018-05-27T03:55:11.339Z,5.27
2018-05-27T04:01:06.109Z,4.82
2018-05-27T04:07:01.122Z,5.47
2018-05-27T04:12:56.178Z,5.88
2018-05-27T04:18:51.143Z,4.73
2018-05-27T04:24:46.091Z,4.99
2018-05-27T04:30:41.111Z,4.37
2018-05-27T04:36:36.172Z,3.92
2018-05-27T04:42:31.102Z,3.87
2018-05-27T04:48:26.188Z,3.87
2018-05-27T04:54:21.139Z,4.17
2018-05-27T05:00:16.150Z,4.32
2018-05-27T05:06:11.126Z,5.4
2018-05-27T05:12:06.129Z,5.63
2018-05-27T05:18:01.121Z,5.94
2018-05-27T05:23:56.160Z,7.19
2018-05-27T05:29:51.202Z,8.37
2018-05-27T05:35:46.141Z,11.28
2018-05-27T05:41:41.167Z,9.03
2018-05-27T05:47:36.126Z,11.88
2018-05-27T05:53:31.137Z,10.28
2018-05-27T05:59:26.168Z,9.72
2018-05-27T06:05:21.139Z,9.01
2018-05-27T06:11:16.152Z,10.41
2018-05-27T06:17:11.154Z,10.83
2018-05-27T06:23:06.138Z,10.32
2018-05-27T06:29:01.159Z,12.23
2018-05-27T06:34:56.162Z,12.02
2018-05-27T06:40:51.161Z,10.92
2018-05-27T06:46:46.142Z,12.26
2018-05-27T06:52:41.146Z,11.4
2018-05-27T06:58:36.166Z,10.83
2018-05-27T07:04:31.345Z,11.08
2018-05-27T07:10:26.169Z,10.71
2018-05-27T07:16:21.137Z,10.04
2018-05-27T07:22:16.216Z,10.3
2018-05-27T07:28:11.182Z,10.33
2018-05-27T07:34:06.192Z,10.59
2018-05-27T07:40:01.183Z,10.74
2018-05-27T07:45:56.178Z,9.01
2018-05-27T07:51:51.153Z,8.98
2018-05-27T07:57:46.245Z,8.55
2018-05-27T08:03:41.180Z,8.19
2018-05-27T08:09:36.192Z,8.48
2018-05-27T08:15:31.195Z,8.23
2018-05-27T08:21:26.174Z,7.61
2018-05-27T08:27:21.221Z,7.35
2018-05-27T08:33:16.200Z,6.23
2018-05-27T08:39:11.162Z,7.83
2018-05-27T08:45:06.195Z,8.02
2018-05-27T08:51:01.188Z,5.76
2018-05-27T08:56:56.214Z,5.35
2018-05-27T09:02:51.228Z,4.69
2018-05-27T09:08:46.166Z,5.3
2018-05-27T09:14:41.262Z,4.57
2018-05-27T09:20:36.201Z,5.1
2018-05-27T09:26:31.231Z,4.37
2018-05-27T09:32:26.210Z,4.5
2018-05-27T09:38:21.225Z,5.31
2018-05-27T09:44:16.195Z,4.94
2018-05-27T09:50:11.187Z,5.47
2018-05-27T09:56:06.240Z,5.93
2018-05-27T10:02:01.232Z,5.76
2018-05-27T10:07:56.216Z,5.88
2018-05-27T10:13:51.235Z,6.07
2018-05-27T10:19:46.238Z,5.63
2018-05-27T10:25:41.241Z,5.65
2018-05-27T10:31:36.229Z,5.52
2018-05-27T10:37:31.232Z,4.34
2018-05-27T10:43:26.327Z,4.55
2018-05-27T10:49:21.258Z,3.96
2018-05-27T10:55:16.222Z,4.43
2018-05-27T11:01:11.316Z,4.47
2018-05-27T11:07:06.266Z,3.89
2018-05-27T11:13:01.267Z,3.48
2018-05-27T11:18:56.254Z,2.84
2018-05-27T11:24:51.286Z,2.91
2018-05-27T11:30:46.281Z,2.8
2018-05-27T11:36:41.236Z,2.74
2018-05-27T11:42:36.257Z,2.78
2018-05-27T11:48:31.292Z,2.76
2018-05-27T11:54:26.266Z,2.7
2018-05-27T12:00:21.327Z,1.74
2018-05-27T12:06:16.332Z,1.65
2018-05-27T12:12:11.353Z,1.57
2018-05-27T12:18:06.258Z,1.5
2018-05-27T12:24:01.335Z,1.76
2018-05-27T12:29:56.371Z,1.95
2018-05-27T12:35:51.350Z,1.6
2018-05-27T12:41:46.269Z,1.47
2018-05-27T12:47:41.270Z,1.4
2018-05-27T12:53:36.370Z,1.71
2018-05-27T12:59:31.270Z,2.14
2018-05-27T13:05:26.280Z,2.39
2018-05-27T13:11:21.287Z,2.44
2018-05-27T13:17:16.307Z,2.23
2018-05-27T13:23:11.317Z,2.19
2018-05-27T13:29:06.312Z,2.89
2018-05-27T13:35:01.336Z,1.83
2018-05-27T13:40:56.312Z,2.08
2018-05-27T13:46:51.286Z,2.18
2018-05-27T13:52:46.322Z,2.11
2018-05-27T13:58:41.329Z,2.02
2018-05-27T14:04:36.290Z,2.31
2018-05-27T14:10:31.297Z,1.92
2018-05-27T14:16:26.319Z,2.19
2018-05-27T14:22:21.320Z,2.39
2018-05-27T14:28:16.297Z,2.62
2018-05-27T14:34:11.311Z,2.04
2018-05-27T14:40:06.336Z,2.76
2018-05-27T14:46:01.348Z,2.49
2018-05-27T14:51:56.351Z,2.67
2018-05-27T14:57:51.329Z,2.9
2018-05-27T15:03:46.324Z,3.19
2018-05-27T15:09:41.350Z,3.41
2018-05-27T15:15:36.346Z,3.6
2018-05-27T15:21:31.362Z,3.55
2018-05-27T15:27:26.399Z,3.85
2018-05-27T15:33:21.372Z,4.47
2018-05-27T15:39:16.387Z,5.17
2018-05-27T15:45:11.422Z,5.52
2018-05-27T15:51:06.386Z,5.32
2018-05-27T15:57:01.435Z,5.91
2018-05-27T16:02:56.375Z,6.8
2018-05-27T16:08:51.373Z,5.98
2018-05-27T16:14:46.399Z,5.93
2018-05-27T16:20:41.381Z,6.61
2018-05-27T16:26:36.386Z,6.32
2018-05-27T16:32:31.421Z,6.48
2018-05-27T16:38:26.380Z,6.56
2018-05-27T16:44:21.407Z,5.81
2018-05-27T16:50:16.360Z,6.45
2018-05-27T16:56:11.411Z,7.18
2018-05-27T17:02:06.387Z,6.05
2018-05-27T17:08:01.384Z,6.28
2018-05-27T17:13:56.461Z,6.35
2018-05-27T17:19:51.437Z,6.77
2018-05-27T17:25:46.389Z,6.3
2018-05-27T17:31:41.406Z,6.68
2018-05-27T17:37:36.393Z,6.03
2018-05-27T17:43:31.418Z,6.4
2018-05-27T17:49:26.396Z,6.59
2018-05-27T17:55:21.463Z,7.13
2018-05-27T18:01:16.441Z,6.57
2018-05-27T18:07:11.393Z,7.48
2018-05-27T18:13:06.424Z,6.59
2018-05-27T18:19:01.442Z,7.23
2018-05-27T18:24:56.424Z,7.56
2018-05-27T18:30:51.401Z,7.63
2018-05-27T18:36:46.439Z,7.45
2018-05-27T18:42:41.447Z,7.66
2018-05-27T18:48:36.457Z,7.61
2018-05-27T18:54:31.477Z,7.4
2018-05-27T19:00:26.451Z,7.4
2018-05-27T19:06:21.444Z,7.52
2018-05-27T19:12:16.426Z,7.29
2018-05-27T19:18:11.452Z,7.13
2018-05-27T19:24:06.438Z,7.54
2018-05-27T19:30:01.490Z,7.05
2018-05-27T19:35:56.455Z,6.91
2018-05-27T19:41:51.434Z,15.41
2018-05-27T19:47:46.504Z,6.51
2018-05-27T19:53:41.486Z,5.87
2018-05-27T19:59:36.516Z,6.01
2018-05-27T20:05:31.435Z,5.76
2018-05-27T20:11:26.482Z,5.84
2018-05-27T20:17:21.471Z,6.57
2018-05-27T20:23:16.471Z,6.55
2018-05-27T20:29:11.493Z,6.52
2018-05-27T20:35:06.453Z,8.83
2018-05-27T20:41:01.481Z,12.24
2018-05-27T20:46:56.521Z,10.67
2018-05-27T20:52:51.509Z,12.27
2018-05-27T20:58:46.553Z,10.19
2018-05-27T21:04:41.502Z,6.9
2018-05-27T21:10:36.492Z,6.83
2018-05-27T21:16:31.511Z,6.6
2018-05-27T21:22:26.530Z,6.7
2018-05-27T21:28:21.499Z,6.36
2018-05-27T21:34:16.606Z,6.62
2018-05-27T21:40:11.487Z,7.36
2018-05-27T21:46:06.491Z,7.9
2018-05-27T21:52:01.599Z,6.96
2018-05-27T21:57:56.489Z,6.9
2018-05-27T22:03:51.534Z,6.85
2018-05-27T22:09:46.501Z,7.29
2018-05-27T22:15:41.482Z,6.88
2018-05-27T22:21:36.545Z,7.15
2018-05-27T22:27:31.547Z,7.22
2018-05-27T22:33:26.552Z,9.51
2018-05-27T22:39:21.537Z,9.16
2018-05-27T22:45:16.502Z,8.78
2018-05-27T22:51:11.568Z,9.43
2018-05-27T22:57:06.552Z,8.83
2018-05-27T23:03:01.573Z,8.31
2018-05-27T23:08:56.525Z,7.01
2018-05-27T23:14:51.538Z,8.01
2018-05-27T23:20:46.532Z,8.23
2018-05-27T23:26:41.517Z,7.54
2018-05-27T23:32:36.530Z,8.12
2018-05-27T23:38:31.553Z,7.71
2018-05-27T23:44:26.599Z,7.28
2018-05-27T23:50:21.604Z,8.28
2018-05-27T23:56:16.575Z,8.02
